Aviation Digital Data Service (ADDS)

Output produced by METARs form (1216 UTC 24 January 2021)
found at http://www.aviationweather.gov/metar/data/
 
LECO 241200Z 25006KT 200V310 9999 FEW024 12/10 Q1013 NOSIG
TAF LECO 240800Z 2409/2509 24009KT 9999 SCT030 TX13/2414Z TN10/2507Z 
     PROB40 
     TEMPO 2409/2509 3000 RADZ BKN010 
     TEMPO 2418/2509 3000 SHRA BKN010 SCT030TCU 
     PROB40 
     TEMPO 2418/2509 1500 BCFG BKN005 BKN010
       
LEAB 241200Z 29023KT 9999 FEW028 12/05 Q1014 NOSIG
TAF LEAB 241100Z 2412/2512 28020KT 9999 FEW035 TX12/2415Z TN08/2506Z 
     TEMPO 2412/2415 27020G34KT 
     PROB30 
     TEMPO 2500/2506 3000 BR BKN010
       
LERI 241200Z 33007KT 300V010 CAVOK 22/03 Q1012 NOSIG
TAF AMD LERI 240833Z 2409/2509 27010KT CAVOK TX19/2412Z TN13/2508Z 
     BECMG 2409/2411 06005KT 
     BECMG 2413/2415 31010KT
       
LEAL 241200Z 31014KT 280V350 CAVOK 20/05 Q1013 NOSIG
TAF LEAL 241100Z 2412/2512 29015KT 9999 FEW050 TX21/2413Z TN10/2506Z 
     TEMPO 2412/2418 30020G30KT 
     TEMPO 2418/2424 30025G40KT 
     TEMPO 2500/2502 28018G30KT 
     BECMG 2506/2508 24012KT
       
LEAM 241200Z 23013KT 9999 FEW010 20/13 Q1013
TAF LEAM 240800Z 2409/2509 25012KT CAVOK TX17/2415Z TN11/2508Z 
     BECMG 2423/2502 33010KT
       
LEGA 241200Z 29017KT 9999 FEW021 BKN035 16/10 Q1018
LEAS 241200Z 25010KT 220V290 9999 FEW045 SCT080 13/06 Q1011 NOSIG
TAF LEAS 240800Z 2409/2509 28009KT 9999 SCT025 TX13/2412Z TN07/2507Z 
     PROB40 
     TEMPO 2409/2417 27015G25KT 
     PROB30 
     TEMPO 2415/2418 3000 RA BKN010 
     TEMPO 2418/2509 3000 RA BKN010 
     PROB30 
     TEMPO 2421/2507 1500 -RA BR BKN005
       
LEMD 241200Z 26010G20KT 220V290 9999 SCT046 SCT050 12/01 Q1015 NOSIG
TAF AMD LEMD 241146Z 2412/2518 25012KT 9999 FEW040 TX13/2415Z TN08/2507Z 
     TEMPO 2412/2419 22012KT 
     TEMPO 2412/2418 23015G25KT 
     TEMPO 2505/2518 24015G25KT 
     TEMPO 2503/2515 BKN008 
     PROB30 
     TEMPO 2505/2515 1000 RA BCFG BKN004
       
LEBL 241200Z 19010KT 9999 FEW035 14/08 Q1008 NOSIG
TAF LEBL 241100Z 2412/2512 30012KT 9999 FEW040 TX16/2413Z TN08/2506Z 
     TEMPO 2412/2414 22010KT 
     BECMG 2416/2418 25012KT 
     BECMG 2501/2503 28020G30KT 
     BECMG 2506/2508 VRB04KT
       
LEBB 241200Z 28005KT 250V320 9999 SCT035 SCT060 13/08 Q1012 NOSIG
TAF LEBB 241100Z 2412/2512 27008KT 9999 SCT020 BKN040 TX13/2414Z TN07/2506Z 
     PROB30 
     TEMPO 2412/2420 27015G25KT 
     PROB30 
     TEMPO 2412/2415 3000 -RA BKN010 
     PROB40 
     TEMPO 2418/2512 3000 RA BKN010 
     PROB40 
     TEMPO 2500/2508 1500 RADZ BR BKN005 BKN010
       
LEBG 241200Z 24019KT 9999 FEW020 BKN026 06/02 Q1013
LEBA 241200Z 25007KT 200V290 CAVOK 16/09 Q1019
TAF COR LEBA 240847Z 2409/2509 27006KT 9999 SCT020 TX18/2415Z TN10/2506Z 
     PROB40 
     TEMPO 2503/2509 4000 BR BKN005
       
LEVS 241200Z 25013KT 230V290 9999 SCT040 12/04 Q1015
TAF LEVS 241100Z 2412/2512 24012KT 9999 FEW040 TX12/2415Z TN08/2507Z 
     PROB30 
     TEMPO 2412/2418 22015G25KT 
     PROB40 
     TEMPO 2505/2512 24015G25KT 
     TEMPO 2502/2512 BKN006 
     PROB40 
     TEMPO 2503/2512 1000 BCFG BKN003 
     PROB30 
     TEMPO 2503/2512 0200 RA FG VV001
       
GCFV 241200Z 03012KT 9999 FEW012 20/15 Q1023
TAF GCFV 240800Z 2409/2509 04010KT 9999 FEW020 TX22/2414Z TN15/2507Z 
     BECMG 2419/2421 34007KT
       
LEGT 241200Z 24009KT 210V280 9999 FEW015 SCT030 12/07 Q1015
TAF LEGT 241100Z 2412/2512 26012KT 9999 FEW040 TX12/2415Z TN08/2507Z 
     PROB40 
     TEMPO 2412/2418 22015G25KT 
     TEMPO 2505/2512 24015G25KT 
     TEMPO 2502/2512 BKN008 
     PROB40 
     TEMPO 2503/2512 1000 BCFG BKN004 
     PROB30 
     TEMPO 2503/2512 0200 RA FG VV001
       
LEGE 241200Z 18005KT 110V220 CAVOK 12/03 Q1006
TAF LEGE 241100Z 2412/2512 VRB04KT 9999 SCT040 TX14/2413Z TN04/2506Z 
     TEMPO 2412/2417 15010KT 
     TEMPO 2417/2508 33008KT 
     PROB30 
     TEMPO 2420/2503 3000 BR
       
GCLP 241200Z 03011KT CAVOK 21/16 Q1023 NOSIG
TAF GCLP 240800Z 2409/2509 03011KT 9999 FEW020 TX22/2414Z TN16/2507Z 
     PROB30 
     TEMPO 2500/2509 BKN014
       
LEGR 241200Z 28016KT 250V320 9999 FEW036 SCT046 15/10 Q1018
TAF LEGR 240800Z 2409/2509 26009KT 9999 SCT025 BKN040 TX11/2415Z TN05/2409Z 
     PROB40 
     TEMPO 2409/2412 4000 RA BKN010
       
GCHI 241200Z 01009KT 340V050 CAVOK 20/16 Q1023
TAF GCHI 240800Z 2409/2509 16004KT 9999 SCT015 TX21/2414Z TN17/2507Z 
     BECMG 2410/2412 36010KT 
     PROB30 
     TEMPO 2500/2509 BKN014
       
LEIB 241200Z 33008KT 290V050 CAVOK 17/05 Q1012 NOSIG
TAF AMD LEIB 240931Z 2409/2509 27020KT 9999 FEW040 TX19/2413Z TN12/2506Z 
     TEMPO 2409/2413 28020G35KT 
     BECMG 2413/2415 28008KT 
     BECMG 2418/2420 29016G26KT
       
LEJR 241200Z 31009KT 280V340 9999 FEW015 17/12 Q1020
TAF LEJR 241100Z 2412/2512 25006KT 9999 SCT020 TX17/2414Z TN11/2507Z 
     PROB40 
     TEMPO 2509/2512 4000 RADZ BKN010
       
GCGM 241200Z 21004KT 150V300 CAVOK 20/16 Q1024 RMK R09/17003KT 120V230 ARP/19004KT 140V270
TAF GCGM 240800Z 2409/2509 14005KT 9999 FEW015 TX20/2414Z TN15/2507Z 
     PROB30 
     TEMPO 2500/2509 BKN014
       
GCLA 241200Z 03006KT 350V080 9999 FEW020 21/16 Q1024
TAF GCLA 240800Z 2409/2509 01006KT 9999 SCT020 TX20/2414Z TN17/2507Z
       
GCRR 241200Z 06009KT 010V100 9999 FEW025 20/16 Q1023
TAF GCRR 240800Z 2409/2509 01009KT 9999 FEW020 TX22/2414Z TN14/2507Z 
     BECMG 2410/2412 07012KT 
     BECMG 2417/2420 01008KT 
     PROB40 
     TEMPO 2500/2509 BKN014
       
LELN 241200Z 25014KT 200V290 9999 FEW013 SCT028 06/03 Q1013
TAF LELN 240800Z 2409/2509 24008KT 9999 FEW025 TX09/2415Z TN04/2506Z 
     PROB40 
     TEMPO 2500/2509 1000 RA BCFG BKN004
       
LEMG 241200Z VRB06KT 9999 FEW005 SCT040 BKN045 19/14 Q1017 NOSIG
TAF LEMG 241100Z 2412/2512 30008KT 9999 SCT045 TX20/2413Z TN12/2507Z 
     PROB40 
     TEMPO 2412/2416 30015G25KT 
     BECMG 2508/2510 VRB03KT
       
GEML 241200Z 25010KT 170V300 CAVOK 20/06 Q1019
TAF AMD GEML 240911Z 2409/2509 27008KT CAVOK TX20/2412Z TN15/2506Z 
     PROB40 
     TEMPO 2421/2503 27015G25KT
       
LEMH 241200Z 36012KT 330V030 9999 FEW022 BKN035 12/07 Q1008
TAF LEMH 240800Z 2409/2509 29020KT 9999 SCT030 TX18/2412Z TN10/2506Z 
     TEMPO 2409/2411 30025G38KT 
     BECMG 2410/2412 34010KT 
     BECMG 2415/2417 28012KT 
     TEMPO 2416/2418 VRB04KT
       
LEMO 241200Z 29007KT 260V330 9999 SCT025 17/15 Q1020 NOSIG
TAF LEMO 240800Z 2409/2509 24009KT 9999 SCT020 TX17/2415Z TN13/2418Z 
     PROB40 
     TEMPO 2409/2412 4000 RA BKN014
       
LEPP 241200Z 05003KT 350V120 9999 FEW018 BKN040 08/05 Q1011
TAF LEPP 240800Z 2409/2509 30008KT 9999 SCT020 TX10/2415Z TN02/2507Z 
     TEMPO 2411/2415 30015G25KT 
     PROB30 
     TEMPO 2409/2412 3000 RA BKN010 
     PROB40 
     TEMPO 2418/2509 3000 RA BKN010 
     PROB30 
     TEMPO 2500/2508 1500 RADZ BR BKN005 BKN010
       
LERS 241200Z 29009KT 210V020 9999 FEW040 14/01 Q1007
TAF LERS 240800Z 2409/2509 30020KT 9999 FEW040 TX16/2413Z TN08/2506Z 
     TEMPO 2409/2415 30030G45KT 
     PROB30 
     TEMPO 2411/2414 30035G55KT 
     BECMG 2414/2416 26010KT
       
LERT 241200Z 30008KT 260V010 9999 FEW008 SCT014 16/13 Q1020 NOSIG
TAF AMD LERT 240858Z 2409/2509 27009KT 9999 SCT020 TX17/2415Z TN14/2506Z 
     PROB40 
     TEMPO 2409/2411 4000 RADZ BKN010 BKN020
       
LESA 241200Z 26018KT 9999 BKN025 BKN031 09/03 Q1016
TAF LESA 240800Z 2409/2509 25014KT 9999 SCT030 TX11/2415Z TN05/2409Z 
     PROB40 
     TEMPO 2500/2509 2000 RA BR BKN006
       
LESO 241200Z 23009KT 200V260 5000 2000W RADZ FEW017 BKN024 BKN040 09/08 Q1012
TAF LESO 241100Z 2412/2512 25009KT 9999 SCT020 BKN040 TX12/2415Z TN06/2507Z 
     PROB40 
     TEMPO 2412/2424 25015G25KT 
     TEMPO 2412/2512 3000 RADZ BKN010 
     PROB30 
     TEMPO 2412/2415 1500 SHRA SCT030TCU 
     PROB40 
     TEMPO 2500/2508 1500 RADZ BR BKN005 BKN010
       
LEXJ 241200Z 28014KT 250V310 9999 FEW050 SCT070 13/08 Q1011
TAF LEXJ 240800Z 2409/2509 27009KT 9999 SCT020 BKN030 TX13/2412Z TN07/2507Z 
     PROB30 
     TEMPO 2409/2420 28015G25KT 
     TEMPO 2409/2411 3000 RA 
     PROB40 
     TEMPO 2418/2509 3000 RA BKN010 
     PROB30 
     TEMPO 2421/2507 1500 -RA BR BKN005
       
LEST 241204Z 27011KT 200V310 5000 -RA SCT004 BKN008 10/08 Q1014 TEMPO 3000 -RA BCFG BKN005
TAF LEST 241100Z 2412/2512 25009KT 8000 SCT010 BKN020 TX12/2412Z TN09/2507Z 
     PROB30 
     TEMPO 2412/2509 25015G25KT 
     PROB40 
     TEMPO 2412/2512 3000 RADZ BKN010 
     TEMPO 2418/2512 3000 SHRA BKN010 SCT030TCU 
     TEMPO 2412/2512 0800 -RA BCFG BKN005 
     PROB30 
     TEMPO 2421/2512 0150 BCFG BKN001
       
LESU 241200Z 30011G21KT 250V320 9999 SCT060 09/M04 Q1007
TAF COR LESU 240827Z 2409/2509 VRB04KT 9999 SCT030 TX11/2414Z TNM01/2506Z 
     TEMPO 2409/2412 0400 FG VV001 
     TEMPO 2409/2414 32010KT 
     PROB30 
     TEMPO 2409/2414 32015G28KT 
     PROB30 
     TEMPO 2412/2418 4000 RA BKN012 BKN030 
     TEMPO 2414/2418 24008KT
       
LEZL 241200Z 35005KT 320V030 9999 FEW020 16/10 Q1019 NOSIG
TAF COR LEZL 240840Z 2409/2509 27006KT 9999 SCT020 TX18/2415Z TN11/2507Z 
     PROB40 
     TEMPO 2506/2509 4000 RADZ BKN010
       
LESB 241200Z AUTO 31021G35KT CAVOK 15/04 Q1010
LEBZ 241200Z 29011KT 9999 FEW022 14/10 Q1019
TAF LEBZ 241100Z 2412/2512 24008KT 9999 SCT020 TX16/2414Z TN12/2507Z 
     PROB40 
     TEMPO 2506/2510 4000 RADZ BR BKN010
       
GCXO 241200Z 10006KT 060V120 CAVOK 18/06 Q1025 NOSIG
TAF GCXO 240800Z 2409/2509 13005KT CAVOK TX18/2414Z TN12/2507Z 
     PROB30 
     TEMPO 2421/2509 2500 BCFG BKN002
       
GCTS 241200Z 11011KT 080V140 9999 FEW025 22/16 Q1023 NOSIG
TAF GCTS 240800Z 2409/2509 04005KT 9999 FEW020 TX23/2414Z TN17/2507Z 
     BECMG 2410/2413 10011KT 
     BECMG 2419/2421 04007KT
       
LETO 241200Z 23009KT 200V270 9999 FEW040 10/03 Q1015 NOSIG
TAF LETO 241100Z 2412/2512 25012KT 9999 FEW040 TX12/2415Z TN08/2507Z 
     PROB30 
     TEMPO 2412/2418 24015G25KT 
     TEMPO 2505/2512 24015G25KT 
     TEMPO 2502/2512 BKN008 
     PROB30 
     TEMPO 2505/2512 1000 RA BCFG BKN004
       
LEVC 241200Z 29021KT 260V320 9999 FEW035 19/02 Q1011 NOSIG
TAF LEVC 241100Z 2412/2512 29015G30KT 9999 FEW040 TX20/2413Z TN12/2506Z 
     BECMG 2412/2414 27012KT 
     TEMPO 2503/2512 28015G30KT 
     PROB30 
     TEMPO 2506/2510 RA BKN050
       
LEVD 241200Z 26018KT 9999 SCT023 09/04 Q1014
TAF LEVD 240800Z 2409/2509 24010KT 9999 SCT020 TX11/2415Z TN05/2506Z 
     PROB30 
     TEMPO 2500/2509 2000 RA BR BKN005
       
LEVX 241200Z 21010KT 150V240 6000 BCFG FEW002 BKN013 BKN021 12/09 Q1016 TEMPO 0800 -RA FG
TAF LEVX 241100Z 2412/2512 24007KT 8000 SCT010 BKN020 TX13/2414Z TN11/2507Z 
     PROB40 
     TEMPO 2501/2512 25015G25KT 
     TEMPO 2412/2512 3000 RADZ BKN010 
     TEMPO 2418/2512 3000 SHRA BKN010 SCT030TCU 
     TEMPO 2412/2512 0800 -RA BCFG BKN005 BKN010 
     TEMPO 2412/2512 0150 -RA BCFG BKN001
       
LEVT 241200Z 21012KT 9999 FEW032 BKN045 09/05 Q1012
TAF LEVT 241100Z 2412/2512 25008KT 9999 SCT035 TX10/2414Z TN03/2507Z 
     PROB30 
     TEMPO 2413/2417 24015G25KT 
     TEMPO 2418/2512 3000 -RA BKN010 
     PROB30 
     TEMPO 2500/2508 1500 RADZ BR BKN005 BKN010
       
LEZG 241200Z 31010KT 290V350 9999 FEW050 12/04 Q1012
TAF LEZG 241100Z 2412/2512 30012KT 9999 SCT050 TX14/2414Z TN06/2506Z 
     PROB30 
     TEMPO 2412/2416 RA BKN040 
     BECMG 2412/2414 34005KT 
     BECMG 2417/2419 26015G26KT 
     BECMG 2423/2501 27007KT 
     PROB40 
     TEMPO 2505/2512 RA BKN030